createdAt,value
2024-01-05T00:00:20.949Z,75
2024-01-05T00:02:51.178Z,76
2024-01-05T00:05:21.495Z,77
2024-01-05T00:07:51.462Z,88
2024-01-05T00:10:21.548Z,93
2024-01-05T00:12:52.756Z,101
2024-01-05T00:15:24.434Z,109
2024-01-05T00:17:54.915Z,119
2024-01-05T00:20:25.466Z,96
2024-01-05T00:22:57.216Z,117
2024-01-05T00:25:27.343Z,123
2024-01-05T00:27:57.897Z,116
2024-01-05T00:30:27.903Z,96
2024-01-05T00:32:59.374Z,89
2024-01-05T00:35:35.712Z,92
2024-01-05T00:38:07.371Z,96
2024-01-05T00:40:37.471Z,104
2024-01-05T00:43:07.897Z,118
2024-01-05T00:45:38.331Z,127
2024-01-05T00:48:10.437Z,112
2024-01-05T00:50:39.286Z,100
2024-01-05T00:53:12.379Z,104
2024-01-05T00:55:42.700Z,93
2024-01-05T00:58:12.686Z,88
2024-01-05T01:00:45.888Z,86
2024-01-05T01:03:17.867Z,84
2024-01-05T01:05:48.117Z,93
2024-01-05T01:08:18.514Z,88
2024-01-05T01:10:48.570Z,89
2024-01-05T01:13:19.884Z,88
2024-01-05T01:15:50.338Z,91
2024-01-05T01:18:20.973Z,96
2024-01-05T01:20:49.567Z,96
2024-01-05T01:23:19.808Z,86
2024-01-05T01:25:50.025Z,81
2024-01-05T01:28:19.934Z,81
2024-01-05T01:30:50.653Z,88
2024-01-05T01:33:21.913Z,85
2024-01-05T01:35:52.439Z,81
2024-01-05T01:38:22.786Z,86
2024-01-05T01:40:53.278Z,87
2024-01-05T01:43:25.577Z,78
2024-01-05T01:45:56.222Z,79
2024-01-05T01:48:29.216Z,78
2024-01-05T01:50:59.797Z,80
2024-01-05T01:53:29.037Z,76
2024-01-05T01:56:00.198Z,81
2024-01-05T01:58:30.462Z,80
2024-01-05T02:01:00.668Z,81
2024-01-05T02:03:32.341Z,80
2024-01-05T02:06:02.808Z,75
2024-01-05T02:08:36.045Z,82
2024-01-05T02:11:06.312Z,83
2024-01-05T02:13:37.665Z,78
2024-01-05T02:16:09.420Z,76
2024-01-05T02:18:43.219Z,76
2024-01-05T02:21:18.247Z,72
2024-01-05T02:23:50.506Z,59
2024-01-05T02:26:21.906Z,65
2024-01-05T02:28:53.944Z,59
2024-01-05T02:31:24.577Z,49
2024-01-05T02:33:55.284Z,60
2024-01-05T02:36:25.614Z,60
2024-01-05T02:38:54.580Z,58
2024-01-05T02:41:24.616Z,70
2024-01-05T02:43:54.676Z,63
2024-01-05T02:46:23.456Z,72
2024-01-05T02:48:53.576Z,68
2024-01-05T02:51:23.769Z,65
2024-01-05T02:53:55.160Z,70
2024-01-05T02:56:25.734Z,70
2024-01-05T02:58:56.448Z,66
2024-01-05T03:01:28.106Z,61
2024-01-05T03:03:58.527Z,65
2024-01-05T03:06:28.638Z,56
2024-01-05T03:08:59.293Z,55
2024-01-05T03:11:29.599Z,54
2024-01-05T03:14:01.222Z,46
2024-01-05T03:16:31.271Z,52
2024-01-05T03:19:01.905Z,52
2024-01-05T03:21:33.483Z,58
2024-01-05T03:24:03.931Z,48
2024-01-05T03:26:36.320Z,48
2024-01-05T03:29:06.895Z,57
2024-01-05T03:31:37.573Z,54
2024-01-05T03:34:08.050Z,60
2024-01-05T03:36:38.350Z,58
2024-01-05T03:39:09.662Z,68
2024-01-05T03:41:40.087Z,54
2024-01-05T03:44:08.786Z,49
2024-01-05T03:46:39.509Z,53
2024-01-05T03:49:10.931Z,49
2024-01-05T03:51:41.331Z,55
2024-01-05T03:54:11.753Z,56
2024-01-05T03:56:40.953Z,55
2024-01-05T03:59:10.626Z,57
2024-01-05T04:01:40.587Z,50
2024-01-05T04:04:10.987Z,50
2024-01-05T04:06:41.985Z,48
2024-01-05T04:09:13.135Z,53
2024-01-05T04:11:43.642Z,54
2024-01-05T04:14:13.670Z,50
2024-01-05T04:16:47.059Z,51
2024-01-05T04:19:17.493Z,47
2024-01-05T04:21:48.061Z,56
2024-01-05T04:24:16.955Z,54
2024-01-05T04:26:48.156Z,56
2024-01-05T04:29:20.429Z,56
2024-01-05T04:31:50.916Z,50
2024-01-05T04:34:21.091Z,51
2024-01-05T04:36:51.642Z,45
2024-01-05T04:39:22.217Z,47
2024-01-05T04:41:53.971Z,47
2024-01-05T04:44:25.640Z,57
2024-01-05T04:46:56.643Z,71
2024-01-05T04:49:29.982Z,68
2024-01-05T04:52:05.173Z,49
2024-01-05T04:54:35.629Z,49
2024-01-05T04:57:06.446Z,43
2024-01-05T04:59:36.924Z,55
2024-01-05T05:02:07.582Z,52
2024-01-05T05:04:37.994Z,40
2024-01-05T05:07:08.424Z,52
2024-01-05T05:09:38.625Z,49
2024-01-05T05:12:09.087Z,51
2024-01-05T05:14:41.483Z,52
2024-01-05T05:17:11.958Z,57
2024-01-05T05:19:44.654Z,45
2024-01-05T05:22:13.519Z,53
2024-01-05T05:24:45.162Z,44
2024-01-05T05:27:18.653Z,41
2024-01-05T05:29:49.768Z,45
2024-01-05T05:32:19.903Z,50
2024-01-05T05:34:52.359Z,47
2024-01-05T05:37:22.997Z,60
2024-01-05T05:39:53.493Z,53
2024-01-05T05:42:25.169Z,52
2024-01-05T05:44:55.514Z,55
2024-01-05T05:47:25.746Z,57
2024-01-05T05:49:57.554Z,64
2024-01-05T05:52:29.904Z,60
2024-01-05T05:55:00.786Z,56
2024-01-05T05:57:32.080Z,51
2024-01-05T06:00:02.502Z,45
2024-01-05T06:02:34.298Z,67
2024-01-05T06:05:07.791Z,79
2024-01-05T06:07:38.148Z,58
2024-01-05T06:10:10.535Z,53
2024-01-05T06:12:43.023Z,63
2024-01-05T06:15:13.256Z,60
2024-01-05T06:17:43.578Z,60
2024-01-05T06:20:13.615Z,64
2024-01-05T06:22:44.695Z,76
2024-01-05T06:25:14.874Z,70
2024-01-05T06:27:45.195Z,63
2024-01-05T06:30:16.419Z,67
2024-01-05T06:32:46.318Z,64
2024-01-05T06:35:16.684Z,60
2024-01-05T06:37:46.965Z,57
2024-01-05T06:40:22.217Z,66
2024-01-05T06:42:52.737Z,58
2024-01-05T06:45:23.479Z,51
2024-01-05T06:47:53.989Z,54
2024-01-05T06:50:23.016Z,52
2024-01-05T06:52:53.780Z,47
2024-01-05T06:55:24.463Z,43
2024-01-05T06:57:54.883Z,48
2024-01-05T07:00:25.523Z,60
2024-01-05T07:02:57.200Z,57
2024-01-05T07:05:27.459Z,51
2024-01-05T07:07:57.482Z,73
2024-01-05T07:10:27.925Z,63
2024-01-05T07:12:57.814Z,55
2024-01-05T07:15:28.028Z,64
2024-01-05T07:17:57.146Z,67
2024-01-05T07:20:25.978Z,60
2024-01-05T07:22:55.826Z,63
2024-01-05T07:25:26.191Z,62
2024-01-05T07:27:56.592Z,64
2024-01-05T07:30:27.302Z,58
2024-01-05T07:32:57.811Z,65
2024-01-05T07:35:30.777Z,67
2024-01-05T07:37:58.416Z,67
2024-01-05T07:40:28.898Z,64
2024-01-05T07:42:57.660Z,68
2024-01-05T07:45:26.638Z,67
2024-01-05T07:47:56.940Z,71
2024-01-05T07:50:26.871Z,73
2024-01-05T07:52:57.008Z,78
2024-01-05T07:55:27.429Z,77
2024-01-05T07:57:57.968Z,75
2024-01-05T08:00:28.297Z,75
2024-01-05T08:02:59.115Z,76
2024-01-05T08:05:30.368Z,77
2024-01-05T08:08:00.670Z,75
2024-01-05T08:10:30.900Z,80
2024-01-05T08:13:01.640Z,84
2024-01-05T08:15:32.977Z,84
2024-01-05T08:18:03.642Z,88
2024-01-05T08:20:34.957Z,88
2024-01-05T08:23:05.777Z,82
2024-01-05T08:25:37.624Z,78
2024-01-05T08:28:07.854Z,88
2024-01-05T08:30:38.359Z,79
2024-01-05T08:33:08.959Z,85
2024-01-05T08:35:39.144Z,80
2024-01-05T08:38:09.523Z,80
2024-01-05T08:40:41.192Z,77
2024-01-05T08:43:21.055Z,73
2024-01-05T08:45:51.307Z,79
2024-01-05T08:48:21.931Z,79
2024-01-05T08:50:52.288Z,74
2024-01-05T08:53:22.994Z,76
2024-01-05T08:55:55.320Z,85
2024-01-05T08:58:25.659Z,87
2024-01-05T09:00:56.016Z,84
2024-01-05T09:03:28.388Z,84
2024-01-05T09:05:59.053Z,88
2024-01-05T09:08:29.214Z,80
2024-01-05T09:11:00.812Z,94
2024-01-05T09:13:34.910Z,115
2024-01-05T09:16:01.975Z,109
2024-01-05T09:18:32.457Z,91
2024-01-05T09:21:03.060Z,87
2024-01-05T09:23:33.222Z,83
2024-01-05T09:26:04.385Z,84
2024-01-05T09:28:34.823Z,79
2024-01-05T09:31:05.270Z,72
2024-01-05T09:33:38.274Z,68
2024-01-05T09:36:08.390Z,72
2024-01-05T09:38:38.931Z,63
2024-01-05T09:41:09.286Z,59
2024-01-05T09:43:40.410Z,60
2024-01-05T09:46:11.790Z,63
2024-01-05T09:48:48.405Z,55
2024-01-05T09:51:17.992Z,58
2024-01-05T09:53:47.900Z,57
2024-01-05T09:56:17.892Z,59
2024-01-05T09:58:48.473Z,52
2024-01-05T10:01:19.585Z,46
2024-01-05T10:03:50.922Z,48
2024-01-05T10:06:22.492Z,44
2024-01-05T10:08:52.049Z,62
2024-01-05T10:11:22.252Z,54
2024-01-05T10:13:51.008Z,63
2024-01-05T10:16:22.401Z,59
2024-01-05T10:18:54.111Z,70
2024-01-05T10:21:26.266Z,61
2024-01-05T10:23:57.547Z,68
2024-01-05T10:26:28.006Z,72
2024-01-05T10:28:58.366Z,63
2024-01-05T10:31:29.110Z,58
2024-01-05T10:33:59.797Z,58
2024-01-05T10:36:30.509Z,55
2024-01-05T10:39:02.745Z,52
2024-01-05T10:41:37.935Z,57
2024-01-05T10:44:09.200Z,51
2024-01-05T10:46:42.268Z,52
2024-01-05T10:49:12.660Z,53
2024-01-05T10:51:44.321Z,57
2024-01-05T10:54:14.632Z,35
2024-01-05T10:56:45.247Z,29
2024-01-05T10:59:15.961Z,27
2024-01-05T11:01:46.829Z,55
2024-01-05T11:04:17.568Z,56
2024-01-05T11:06:46.662Z,44
2024-01-05T11:09:15.654Z,30
2024-01-05T11:11:46.345Z,32
2024-01-05T11:14:17.248Z,44
2024-01-05T11:16:49.338Z,36
2024-01-05T11:19:19.737Z,34
2024-01-05T11:21:50.424Z,36
2024-01-05T11:24:22.700Z,30
2024-01-05T11:26:52.982Z,35
2024-01-05T11:29:23.496Z,40
2024-01-05T11:31:54.544Z,32
2024-01-05T11:34:24.657Z,41
2024-01-05T11:36:56.274Z,37
2024-01-05T11:39:26.589Z,37
2024-01-05T11:41:58.167Z,39
2024-01-05T11:44:29.735Z,46
2024-01-05T11:47:00.305Z,32
2024-01-05T11:49:32.840Z,34
2024-01-05T11:52:04.886Z,47
2024-01-05T11:54:36.981Z,36
2024-01-05T11:57:07.222Z,38
2024-01-05T11:59:38.126Z,28
2024-01-05T12:02:06.955Z,33
2024-01-05T12:04:37.302Z,28
2024-01-05T12:07:07.464Z,31
2024-01-05T12:09:39.045Z,27
2024-01-05T12:12:11.185Z,32
2024-01-05T12:14:45.117Z,26
2024-01-05T12:17:16.814Z,32
2024-01-05T12:19:47.278Z,39
2024-01-05T12:22:17.860Z,27
2024-01-05T12:24:48.166Z,31
2024-01-05T12:27:18.624Z,25
2024-01-05T12:29:50.122Z,24
2024-01-05T12:32:20.217Z,26
2024-01-05T12:34:50.983Z,33
2024-01-05T12:37:19.913Z,61
2024-01-05T12:39:49.868Z,78
2024-01-05T12:42:20.067Z,44
2024-01-05T12:44:50.293Z,43
2024-01-05T12:47:20.470Z,53
2024-01-05T12:49:55.921Z,35
2024-01-05T12:52:25.979Z,36
2024-01-05T12:55:03.650Z,37
2024-01-05T12:57:35.969Z,38
2024-01-05T13:00:06.659Z,40
2024-01-05T13:02:38.427Z,75
2024-01-05T13:05:08.780Z,80
2024-01-05T13:07:40.322Z,90
2024-01-05T13:10:10.500Z,84
2024-01-05T13:15:16.925Z,80
2024-01-05T13:17:49.092Z,80
2024-01-05T13:20:28.549Z,78
2024-01-05T13:23:00.885Z,60
2024-01-05T13:25:31.404Z,61
2024-01-05T13:28:00.331Z,59
2024-01-05T13:30:30.862Z,61
2024-01-05T13:33:00.980Z,66
2024-01-05T13:35:29.573Z,61
2024-01-05T13:37:59.826Z,52
2024-01-05T13:40:29.876Z,52
2024-01-05T13:43:00.066Z,57
2024-01-05T13:45:30.826Z,57
2024-01-05T13:48:01.477Z,52
2024-01-05T13:50:30.334Z,53
2024-01-05T13:53:00.371Z,42
2024-01-05T13:55:31.467Z,45
2024-01-05T13:58:01.599Z,55
2024-01-05T14:00:30.883Z,49
2024-01-05T14:03:01.574Z,45
2024-01-05T14:05:32.005Z,54
2024-01-05T14:08:02.251Z,51
2024-01-05T14:10:32.572Z,46
2024-01-05T14:13:01.963Z,51
2024-01-05T14:15:32.587Z,58
2024-01-05T14:18:02.944Z,54
2024-01-05T14:20:31.559Z,51
2024-01-05T14:23:01.986Z,48
2024-01-05T14:25:32.075Z,53
2024-01-05T14:28:02.662Z,55
2024-01-05T14:30:33.272Z,52
2024-01-05T14:33:03.653Z,57
2024-01-05T14:35:35.270Z,60
2024-01-05T14:38:05.722Z,54
2024-01-05T14:40:35.844Z,55
2024-01-05T14:43:05.923Z,58
2024-01-05T14:45:36.514Z,53
2024-01-05T14:48:07.622Z,58
2024-01-05T14:50:38.142Z,54
2024-01-05T14:53:11.356Z,64
2024-01-05T14:55:40.225Z,60
2024-01-05T14:58:10.733Z,60
2024-01-05T15:00:42.770Z,63
2024-01-05T15:03:12.890Z,58
2024-01-05T15:05:46.532Z,70
2024-01-05T15:08:16.889Z,68
2024-01-05T15:10:45.678Z,64
2024-01-05T15:13:16.169Z,67
2024-01-05T15:15:46.880Z,61
2024-01-05T15:18:15.908Z,65
2024-01-05T15:20:46.218Z,60
2024-01-05T15:23:16.439Z,57
2024-01-05T15:25:46.692Z,55
2024-01-05T15:28:17.425Z,55
2024-01-05T15:30:47.988Z,59
2024-01-05T15:33:18.349Z,49
2024-01-05T15:35:48.467Z,54
2024-01-05T15:38:18.943Z,49
2024-01-05T15:40:49.683Z,56
2024-01-05T15:43:19.782Z,55
2024-01-05T15:45:50.571Z,54
2024-01-05T15:48:21.037Z,57
2024-01-05T15:50:50.904Z,47
2024-01-05T15:53:21.172Z,56
2024-01-05T15:55:58.138Z,50
2024-01-05T15:58:22.322Z,56
2024-01-05T16:00:51.470Z,56
2024-01-05T16:03:21.595Z,54
2024-01-05T16:05:51.045Z,56
2024-01-05T16:08:21.012Z,54
2024-01-05T16:10:51.283Z,59
2024-01-05T16:13:21.550Z,55
2024-01-05T16:15:54.856Z,60
2024-01-05T16:18:25.388Z,64
2024-01-05T16:20:55.675Z,64
2024-01-05T16:23:29.897Z,67
2024-01-05T16:26:00.078Z,67
2024-01-05T16:28:30.283Z,68
2024-01-05T16:31:04.186Z,60
2024-01-05T16:33:35.512Z,68
2024-01-05T16:36:06.037Z,60
2024-01-05T16:38:36.494Z,62
2024-01-05T16:41:08.365Z,66
2024-01-05T16:43:42.546Z,68
2024-01-05T16:46:16.594Z,69
2024-01-05T16:48:49.347Z,65
2024-01-05T16:51:19.096Z,74
2024-01-05T16:53:53.494Z,71
2024-01-05T16:56:24.866Z,68
2024-01-05T16:58:55.349Z,68
2024-01-05T17:01:29.151Z,66
2024-01-05T17:06:59.915Z,63
2024-01-05T17:09:30.019Z,60
2024-01-05T17:12:01.223Z,65
2024-01-05T17:14:31.647Z,62
2024-01-05T17:17:03.449Z,60
2024-01-05T17:19:33.976Z,68
2024-01-05T17:22:04.360Z,68
2024-01-05T17:24:35.035Z,70
2024-01-05T17:27:05.597Z,70
2024-01-05T17:29:36.880Z,58
2024-01-05T17:32:08.462Z,55
2024-01-05T17:34:40.260Z,53
2024-01-05T17:37:10.627Z,53
2024-01-05T17:39:48.772Z,63
2024-01-05T17:42:19.428Z,64
2024-01-05T17:44:50.471Z,53
2024-01-05T17:47:20.433Z,68
2024-01-05T17:49:52.937Z,63
2024-01-05T17:52:26.107Z,66
2024-01-05T17:54:56.360Z,65
2024-01-05T17:57:27.737Z,68
2024-01-05T18:00:03.639Z,70
2024-01-05T18:02:34.161Z,66
2024-01-05T18:05:05.984Z,64
2024-01-05T18:07:36.639Z,65
2024-01-05T18:10:20.777Z,68
2024-01-05T18:12:55.621Z,72
2024-01-05T18:15:24.192Z,64
2024-01-05T18:17:55.916Z,65
2024-01-05T18:20:29.778Z,61
2024-01-05T18:23:01.945Z,56
2024-01-05T18:25:31.922Z,61
2024-01-05T18:28:03.116Z,57
2024-01-05T18:30:31.693Z,61
2024-01-05T18:33:02.325Z,54
2024-01-05T18:35:32.502Z,61
2024-01-05T18:38:01.230Z,68
2024-01-05T18:40:31.553Z,58
2024-01-05T18:43:00.431Z,63
2024-01-05T18:45:30.677Z,59
2024-01-05T18:48:02.307Z,57
2024-01-05T18:50:32.122Z,61
2024-01-05T18:53:02.451Z,59
2024-01-05T18:55:30.997Z,61
2024-01-05T18:58:01.210Z,61
2024-01-05T19:00:32.044Z,57
2024-01-05T19:03:02.358Z,57
2024-01-05T19:05:32.396Z,54
2024-01-05T19:08:02.446Z,60
2024-01-05T19:10:33.040Z,57
2024-01-05T19:13:01.498Z,56
2024-01-05T19:15:34.180Z,52
2024-01-05T19:18:05.114Z,50
2024-01-05T19:20:35.664Z,47
2024-01-05T19:23:06.177Z,49
2024-01-05T19:25:37.326Z,45
2024-01-05T19:28:07.513Z,52
2024-01-05T19:30:41.246Z,56
2024-01-05T19:33:11.444Z,53
2024-01-05T19:35:41.357Z,52
2024-01-05T19:38:11.517Z,51
2024-01-05T19:40:41.984Z,56
2024-01-05T19:43:13.753Z,52
2024-01-05T19:45:42.646Z,54
2024-01-05T19:48:13.243Z,55
2024-01-05T19:50:42.889Z,64
2024-01-05T19:53:13.734Z,66
2024-01-05T19:55:43.705Z,56
2024-01-05T19:58:14.472Z,65
2024-01-05T20:00:44.909Z,61
2024-01-05T20:03:14.794Z,56
2024-01-05T20:05:45.685Z,59
2024-01-05T20:08:16.100Z,56
2024-01-05T20:10:46.311Z,51
2024-01-05T20:13:17.308Z,50
2024-01-05T20:15:47.060Z,48
2024-01-05T20:18:18.047Z,49
2024-01-05T20:23:30.305Z,61
2024-01-05T20:26:05.521Z,86
2024-01-05T20:28:37.178Z,50
2024-01-05T20:31:07.542Z,63
2024-01-05T20:33:38.731Z,52
2024-01-05T20:36:10.160Z,55
2024-01-05T20:38:40.023Z,45
2024-01-05T20:41:10.421Z,42
2024-01-05T20:43:40.872Z,45
2024-01-05T20:46:11.005Z,45
2024-01-05T20:48:39.896Z,48
2024-01-05T20:51:12.742Z,51
2024-01-05T20:53:43.213Z,48
2024-01-05T20:56:14.163Z,50
2024-01-05T20:58:46.112Z,51
2024-01-05T21:01:14.699Z,51
2024-01-05T21:06:28.699Z,43
2024-01-05T21:09:02.379Z,52
2024-01-05T21:11:32.721Z,52
2024-01-05T21:14:04.152Z,48
2024-01-05T21:19:37.938Z,51
2024-01-05T21:22:27.345Z,40
2024-01-05T21:24:58.415Z,48
2024-01-05T21:27:29.171Z,50
2024-01-05T21:29:59.435Z,56
2024-01-05T21:32:34.417Z,54
2024-01-05T21:35:06.341Z,45
2024-01-05T21:37:36.016Z,55
2024-01-05T21:40:05.917Z,50
2024-01-05T21:42:36.014Z,52
2024-01-05T21:45:07.576Z,50
2024-01-05T21:47:36.852Z,49
2024-01-05T21:50:07.155Z,51
2024-01-05T21:52:37.502Z,51
2024-01-05T21:55:10.596Z,44
2024-01-05T21:57:42.366Z,49
2024-01-05T22:00:12.497Z,47
2024-01-05T22:02:43.509Z,41
2024-01-05T22:05:18.064Z,40
2024-01-05T22:07:48.168Z,48
2024-01-05T22:13:10.163Z,45
2024-01-05T22:15:39.616Z,44
2024-01-05T22:18:12.203Z,59
2024-01-05T22:20:43.920Z,47
2024-01-05T22:23:13.524Z,49
2024-01-05T22:25:43.893Z,51
2024-01-05T22:28:17.890Z,44
2024-01-05T22:30:48.871Z,45
2024-01-05T22:33:21.239Z,43
2024-01-05T22:35:54.094Z,45
2024-01-05T22:38:24.340Z,48
2024-01-05T22:40:55.608Z,49
2024-01-05T22:43:26.023Z,43
2024-01-05T22:45:59.643Z,39
2024-01-05T22:48:35.235Z,45
2024-01-05T22:51:13.133Z,32
2024-01-05T22:53:44.835Z,45
2024-01-05T22:56:17.730Z,42
2024-01-05T22:58:49.589Z,52
2024-01-05T23:01:20.155Z,45
2024-01-05T23:03:54.027Z,42
2024-01-05T23:06:24.908Z,43
2024-01-05T23:08:55.714Z,46
2024-01-05T23:11:25.844Z,31
2024-01-05T23:13:56.846Z,37
2024-01-05T23:16:27.240Z,43
2024-01-05T23:18:57.371Z,46
2024-01-05T23:21:26.086Z,44
2024-01-05T23:23:56.744Z,39
2024-01-05T23:26:27.082Z,39
2024-01-05T23:28:59.721Z,33
2024-01-05T23:31:30.504Z,43
2024-01-05T23:34:08.199Z,38
2024-01-05T23:36:31.806Z,58
2024-01-05T23:39:00.616Z,51
2024-01-05T23:41:30.715Z,43
2024-01-05T23:44:00.795Z,39
2024-01-05T23:46:31.532Z,30
2024-01-05T23:49:02.040Z,29
2024-01-05T23:51:31.772Z,34
2024-01-05T23:54:02.113Z,32
2024-01-05T23:56:32.166Z,28
2024-01-05T23:59:02.917Z,31
